createdAt,value
2022-10-16T00:02:26.218Z,101417.34
2022-10-16T00:05:13.142Z,101412.72
2022-10-16T00:07:53.520Z,101415.38
2022-10-16T00:10:40.101Z,101413.53
2022-10-16T00:13:21.825Z,101423.16
2022-10-16T00:16:11.104Z,101426.22
2022-10-16T00:18:51.472Z,101419.25
2022-10-16T00:21:41.057Z,101427.28
2022-10-16T00:24:28.175Z,101423.28
2022-10-16T00:27:15.085Z,101424.81
2022-10-16T00:30:06.114Z,101421.00
2022-10-16T00:32:46.532Z,101420.78
2022-10-16T00:35:33.069Z,101429.69
2022-10-16T00:38:13.754Z,101418.44
2022-10-16T00:41:00.082Z,101418.50
2022-10-16T00:43:44.852Z,101417.69
2022-10-16T00:46:40.061Z,101409.69
2022-10-16T00:49:21.329Z,101403.06
2022-10-16T00:52:08.042Z,101403.59
2022-10-16T00:54:58.030Z,101399.78
2022-10-16T00:57:44.989Z,101408.28
2022-10-16T01:00:34.059Z,101398.56
2022-10-16T01:03:31.146Z,101405.00
2022-10-16T01:06:32.047Z,101396.47
2022-10-16T01:09:27.121Z,101411.34
2022-10-16T01:12:18.040Z,101410.81
2022-10-16T01:15:13.038Z,101413.66
2022-10-16T01:18:05.798Z,101419.47
2022-10-16T01:21:01.040Z,101433.25
2022-10-16T01:23:41.226Z,101426.09
2022-10-16T01:26:46.044Z,101426.25
2022-10-16T01:29:45.041Z,101433.66
2022-10-16T01:32:32.117Z,101440.34
2022-10-16T01:35:35.044Z,101439.31
2022-10-16T01:38:23.114Z,101436.03
2022-10-16T01:41:25.033Z,101450.94
2022-10-16T01:44:19.011Z,101441.31
2022-10-16T01:47:00.516Z,101450.50
2022-10-16T01:49:50.961Z,101455.56
2022-10-16T01:52:34.441Z,101455.34
2022-10-16T01:55:24.009Z,101449.81
2022-10-16T01:58:08.151Z,101461.75
2022-10-16T02:00:59.097Z,101446.09
2022-10-16T02:03:50.039Z,101442.22
2022-10-16T02:06:30.933Z,101447.28
2022-10-16T02:09:12.287Z,101442.59
2022-10-16T02:11:58.934Z,101436.03
2022-10-16T02:14:40.777Z,101437.59
2022-10-16T02:17:30.947Z,101448.63
2022-10-16T02:20:18.906Z,101433.50
2022-10-16T02:23:01.039Z,101447.88
2022-10-16T02:25:51.914Z,101441.06
2022-10-16T02:28:55.930Z,101453.56
2022-10-16T02:31:48.917Z,101463.56
2022-10-16T02:34:32.019Z,101452.59
2022-10-16T02:37:19.910Z,101453.19
2022-10-16T02:40:07.940Z,101460.16
2022-10-16T02:42:58.884Z,101462.16
2022-10-16T02:45:45.955Z,101461.16
2022-10-16T02:48:26.290Z,101470.06
2022-10-16T02:51:12.906Z,101461.88
2022-10-16T02:53:53.328Z,101470.41
2022-10-16T02:56:39.888Z,101472.38
2022-10-16T02:59:20.237Z,101475.41
2022-10-16T03:02:06.971Z,101472.06
2022-10-16T03:04:47.323Z,101461.03
2022-10-16T03:26:03.037Z,101483.59
2022-10-16T03:28:50.035Z,101480.72
2022-10-16T03:31:37.067Z,101482.03
2022-10-16T03:34:17.530Z,101480.31
2022-10-16T03:37:04.077Z,101479.22
2022-10-16T03:39:44.390Z,101493.50
2022-10-16T03:42:31.995Z,101492.41
2022-10-16T03:45:12.799Z,101489.41
2022-10-16T03:48:00.015Z,101495.16
2022-10-16T03:50:40.458Z,101495.38
2022-10-16T03:53:26.986Z,101490.34
2022-10-16T03:56:07.699Z,101490.66
2022-10-16T03:58:53.995Z,101479.63
2022-10-16T04:01:34.405Z,101491.22
2022-10-16T04:04:21.003Z,101482.13
2022-10-16T04:07:08.027Z,101494.56
2022-10-16T04:09:48.174Z,101494.84
2022-10-16T04:12:34.957Z,101499.00
2022-10-16T04:15:15.086Z,101503.19
2022-10-16T04:18:01.997Z,101496.53
2022-10-16T04:20:42.116Z,101491.56
2022-10-16T04:23:30.972Z,101512.50
2022-10-16T04:26:18.111Z,101494.56
2022-10-16T04:28:57.995Z,101500.53
2022-10-16T04:31:38.297Z,101504.06
2022-10-16T04:34:24.931Z,101510.94
2022-10-16T04:37:05.356Z,101516.94
2022-10-16T04:39:52.984Z,101519.09
2022-10-16T04:42:33.347Z,101522.03
2022-10-16T04:45:20.889Z,101528.31
2022-10-16T04:48:01.396Z,101517.97
2022-10-16T04:50:52.935Z,101529.47
2022-10-16T04:53:35.569Z,101522.91
2022-10-16T04:56:22.906Z,101535.34
2022-10-16T04:59:03.357Z,101539.63
2022-10-16T05:01:49.917Z,101534.16
2022-10-16T05:04:30.260Z,101550.75
2022-10-16T05:07:16.890Z,101541.00
2022-10-16T05:10:03.891Z,101548.13
2022-10-16T05:12:50.899Z,101551.88
2022-10-16T05:15:31.253Z,101561.59
2022-10-16T05:18:17.857Z,101548.38
2022-10-16T05:21:04.877Z,101552.25
2022-10-16T05:23:58.869Z,101564.84
2022-10-16T05:26:49.119Z,101568.59
2022-10-16T05:29:35.877Z,101574.72
2022-10-16T05:32:18.533Z,101580.16
2022-10-16T05:35:08.769Z,101579.38
2022-10-16T05:38:00.027Z,101582.97
2022-10-16T05:40:46.854Z,101587.38
2022-10-16T05:43:28.837Z,101589.13
2022-10-16T05:46:18.876Z,101589.69
2022-10-16T05:48:59.445Z,101575.59
2022-10-16T05:51:45.844Z,101582.72
2022-10-16T05:54:26.236Z,101588.84
2022-10-16T05:57:13.834Z,101598.72
2022-10-16T06:00:00.850Z,101601.44
2022-10-16T06:02:45.919Z,101602.94
2022-10-16T06:05:33.842Z,101598.63
2022-10-16T06:08:13.951Z,101611.31
2022-10-16T06:11:15.827Z,101616.69
2022-10-16T06:14:02.824Z,101609.88
2022-10-16T06:16:49.805Z,101613.72
2022-10-16T06:19:36.839Z,101608.13
2022-10-16T06:22:23.811Z,101618.59
2022-10-16T06:25:17.816Z,101617.19
2022-10-16T06:27:58.464Z,101615.69
2022-10-16T06:30:44.786Z,101616.50
2022-10-16T06:33:31.861Z,101613.50
2022-10-16T06:36:15.401Z,101616.03
2022-10-16T06:39:01.803Z,101614.75
2022-10-16T06:41:48.854Z,101627.41
2022-10-16T06:44:29.167Z,101628.78
2022-10-16T06:47:15.778Z,101625.44
2022-10-16T06:49:56.180Z,101639.31
2022-10-16T06:52:42.766Z,101633.84
2022-10-16T06:55:23.310Z,101638.91
2022-10-16T06:58:10.774Z,101639.88
2022-10-16T07:00:57.979Z,101651.66
2022-10-16T07:03:44.775Z,101643.59
2022-10-16T07:06:26.831Z,101656.78
2022-10-16T07:09:15.759Z,101654.22
2022-10-16T07:12:02.745Z,101652.41
2022-10-16T07:14:49.711Z,101654.28
2022-10-16T07:17:36.779Z,101654.97
2022-10-16T07:20:16.845Z,101676.59
2022-10-16T07:23:03.745Z,101673.94
2022-10-16T07:25:57.779Z,101665.78
2022-10-16T07:28:44.920Z,101657.06
2022-10-16T07:31:26.742Z,101661.78
2022-10-16T07:34:07.136Z,101656.22
2022-10-16T07:36:53.750Z,101664.88
2022-10-16T07:39:34.190Z,101669.91
2022-10-16T07:42:20.719Z,101662.66
2022-10-16T07:45:01.113Z,101668.88
2022-10-16T07:47:47.674Z,101666.06
2022-10-16T07:50:28.073Z,101683.75
2022-10-16T07:53:14.716Z,101669.31
2022-10-16T07:56:03.515Z,101674.63
2022-10-16T07:58:50.745Z,101664.59
2022-10-16T08:01:31.146Z,101669.09
2022-10-16T08:04:17.699Z,101671.84
2022-10-16T08:07:04.659Z,101676.19
2022-10-16T08:09:51.667Z,101667.44
2022-10-16T08:12:38.694Z,101664.72
2022-10-16T08:15:18.877Z,101674.75
2022-10-16T08:18:08.681Z,101664.13
2022-10-16T08:20:49.773Z,101670.66
2022-10-16T08:23:36.674Z,101667.38
2022-10-16T08:26:30.657Z,101671.03
2022-10-16T08:29:17.752Z,101678.31
2022-10-16T08:32:04.662Z,101673.50
2022-10-16T08:34:51.654Z,101678.34
2022-10-16T08:37:38.695Z,101663.84
2022-10-16T08:40:27.124Z,101670.69
2022-10-16T08:43:38.651Z,101680.38
2022-10-16T08:46:50.625Z,101670.25
2022-10-16T08:49:32.704Z,101684.06
2022-10-16T08:52:26.813Z,101692.00
2022-10-16T08:55:13.689Z,101684.38
2022-10-16T08:57:53.784Z,101691.22
2022-10-16T09:00:40.701Z,101690.56
2022-10-16T09:03:40.726Z,101679.75
2022-10-16T09:07:01.632Z,101695.31
2022-10-16T09:09:41.863Z,101697.75
2022-10-16T09:12:37.634Z,101690.47
2022-10-16T09:15:34.655Z,101687.22
2022-10-16T09:19:02.077Z,101688.09
2022-10-16T09:21:55.628Z,101689.25
2022-10-16T09:24:36.440Z,101686.38
2022-10-16T09:27:29.040Z,101686.09
2022-10-16T09:30:27.635Z,101677.22
2022-10-16T09:33:08.744Z,101684.31
2022-10-16T09:36:01.564Z,101700.81
2022-10-16T09:38:49.639Z,101692.50
2022-10-16T09:41:36.592Z,101687.72
2022-10-16T09:44:38.608Z,101692.91
2022-10-16T09:47:28.892Z,101678.72
2022-10-16T09:50:13.650Z,101683.69
2022-10-16T09:53:21.578Z,101692.16
2022-10-16T09:56:11.729Z,101687.31
2022-10-16T09:58:57.187Z,101688.53
2022-10-16T10:01:53.556Z,101686.22
2022-10-16T10:04:44.598Z,101687.50
2022-10-16T10:07:57.560Z,101683.19
2022-10-16T10:10:43.182Z,101684.00
2022-10-16T10:13:38.591Z,101690.75
2022-10-16T10:16:32.578Z,101683.94
2022-10-16T10:19:27.985Z,101692.94
2022-10-16T10:22:29.868Z,101681.63
2022-10-16T10:25:26.688Z,101673.00
2022-10-16T10:28:31.613Z,101679.63
2022-10-16T10:31:32.588Z,101663.41
2022-10-16T10:34:44.867Z,101678.13
2022-10-16T10:37:49.574Z,101672.91
2022-10-16T10:40:45.203Z,101683.94
2022-10-16T10:43:45.536Z,101675.69
2022-10-16T10:46:56.607Z,101678.53
2022-10-16T10:49:58.495Z,101664.75
2022-10-16T10:52:54.246Z,101680.56
2022-10-16T10:55:43.478Z,101676.97
2022-10-16T10:58:45.521Z,101682.31
2022-10-16T11:01:53.518Z,101664.91
2022-10-16T11:04:52.512Z,101664.78
2022-10-16T11:07:48.649Z,101660.16
2022-10-16T11:10:45.590Z,101648.84
2022-10-16T11:13:41.487Z,101650.88
2022-10-16T11:16:46.498Z,101654.31
2022-10-16T11:19:35.621Z,101663.38
2022-10-16T11:22:29.466Z,101668.63
2022-10-16T11:25:27.457Z,101672.28
2022-10-16T11:28:13.797Z,101672.31
2022-10-16T11:31:25.483Z,101678.78
2022-10-16T11:34:55.446Z,101671.91
2022-10-16T11:37:45.559Z,101672.31
2022-10-16T11:40:49.514Z,101673.44
2022-10-16T11:43:47.496Z,101667.72
2022-10-16T11:46:28.878Z,101674.94
2022-10-16T11:49:35.471Z,101666.59
2022-10-16T11:52:50.439Z,101676.06
2022-10-16T11:55:46.206Z,101663.41
2022-10-16T11:58:52.517Z,101665.63
2022-10-16T12:01:32.685Z,101653.44
2022-10-16T12:04:53.446Z,101659.94
2022-10-16T12:07:45.470Z,101669.25
2022-10-16T12:10:44.452Z,101666.56
2022-10-16T12:13:38.679Z,101682.63
2022-10-16T12:16:28.431Z,101682.56
2022-10-16T12:19:21.427Z,101675.31
2022-10-16T12:22:12.417Z,101667.97
2022-10-16T12:24:59.423Z,101686.00
2022-10-16T12:27:47.400Z,101685.06
2022-10-16T12:30:33.754Z,101688.03
2022-10-16T12:33:42.427Z,101697.63
2022-10-16T12:36:35.369Z,101701.63
2022-10-16T12:39:38.385Z,101701.56
2022-10-16T12:42:34.404Z,101702.38
2022-10-16T12:45:39.387Z,101700.78
2022-10-16T12:48:26.498Z,101706.88
2022-10-16T12:51:43.431Z,101716.00
2022-10-16T12:54:43.395Z,101707.19
2022-10-16T12:57:38.279Z,101710.22
2022-10-16T13:00:27.398Z,101711.00
2022-10-16T13:03:39.358Z,101712.06
2022-10-16T13:06:56.381Z,101705.34
2022-10-16T13:09:43.468Z,101704.19
2022-10-16T13:13:01.379Z,101699.13
2022-10-16T13:15:50.886Z,101703.25
2022-10-16T13:19:15.369Z,101713.44
2022-10-16T13:22:02.359Z,101709.81
2022-10-16T13:25:07.988Z,101720.03
2022-10-16T13:28:09.371Z,101709.88
2022-10-16T13:30:52.432Z,101707.84
2022-10-16T13:33:49.351Z,101707.03
2022-10-16T13:36:39.358Z,101715.59
2022-10-16T13:39:29.424Z,101713.69
2022-10-16T13:42:39.306Z,101723.03
2022-10-16T13:45:26.210Z,101727.63
2022-10-16T13:48:20.341Z,101719.59
2022-10-16T13:51:10.385Z,101729.47
2022-10-16T13:53:51.418Z,101734.41
2022-10-16T13:56:40.357Z,101741.94
2022-10-16T13:59:33.437Z,101742.16
2022-10-16T14:02:32.330Z,101743.81
2022-10-16T14:05:23.314Z,101737.31
2022-10-16T14:08:03.788Z,101738.94
2022-10-16T14:10:50.335Z,101729.16
2022-10-16T14:13:40.010Z,101726.53
2022-10-16T14:16:36.302Z,101730.81
2022-10-16T14:19:24.994Z,101735.44
2022-10-16T14:22:13.265Z,101737.91
2022-10-16T14:25:07.301Z,101745.97
2022-10-16T14:28:16.737Z,101753.34
2022-10-16T14:31:10.254Z,101753.66
2022-10-16T14:33:57.268Z,101748.09
2022-10-16T14:36:38.447Z,101756.00
2022-10-16T14:39:30.302Z,101756.66
2022-10-16T14:42:10.611Z,101754.31
2022-10-16T14:45:01.447Z,101757.63
2022-10-16T14:47:41.370Z,101762.19
2022-10-16T14:50:28.272Z,101759.25
2022-10-16T14:53:15.269Z,101758.91
2022-10-16T14:55:55.653Z,101752.53
2022-10-16T14:58:42.253Z,101757.13
2022-10-16T15:01:22.876Z,101768.25
2022-10-16T15:04:09.298Z,101772.13
2022-10-16T15:06:56.245Z,101766.25
2022-10-16T15:09:36.336Z,101765.72
2022-10-16T15:28:00.265Z,101802.81
2022-10-16T15:30:41.118Z,101793.84
2022-10-16T15:33:38.773Z,101798.16
2022-10-16T15:36:44.242Z,101810.81
2022-10-16T15:39:36.629Z,101811.97
2022-10-16T15:42:27.332Z,101813.09
2022-10-16T15:45:07.565Z,101822.69
2022-10-16T15:47:54.170Z,101826.91
2022-10-16T15:50:41.214Z,101833.94
2022-10-16T15:53:21.566Z,101832.88
2022-10-16T15:56:08.195Z,101839.19
2022-10-16T15:58:49.556Z,101843.03
2022-10-16T16:01:37.279Z,101850.53
2022-10-16T16:04:42.184Z,101848.19
2022-10-16T16:07:24.129Z,101848.91
2022-10-16T16:10:06.840Z,101844.00
2022-10-16T16:12:57.190Z,101846.41
2022-10-16T16:15:48.167Z,101859.84
2022-10-16T16:18:29.668Z,101860.44
2022-10-16T16:21:18.116Z,101870.69
2022-10-16T16:24:05.193Z,101874.09
2022-10-16T16:26:52.209Z,101877.59
2022-10-16T16:29:32.242Z,101881.28
2022-10-16T16:32:19.117Z,101881.38
2022-10-16T16:34:59.241Z,101897.53
2022-10-16T16:37:46.180Z,101900.09
2022-10-16T16:40:26.235Z,101910.34
2022-10-16T16:43:13.103Z,101904.06
2022-10-16T16:45:53.297Z,101909.13
2022-10-16T16:48:40.126Z,101917.00
2022-10-16T16:51:22.221Z,101916.19
2022-10-16T16:54:09.159Z,101917.41
2022-10-16T16:56:56.100Z,101924.47
2022-10-16T16:59:43.111Z,101926.50
2022-10-16T17:02:23.229Z,101923.53
2022-10-16T17:05:10.105Z,101919.63
2022-10-16T17:07:57.106Z,101923.63
2022-10-16T17:10:44.107Z,101929.16
2022-10-16T17:13:31.075Z,101933.56
2022-10-16T17:16:11.895Z,101932.53
2022-10-16T17:19:00.095Z,101929.56
2022-10-16T17:21:41.217Z,101947.69
2022-10-16T17:24:28.042Z,101944.09
2022-10-16T17:27:22.109Z,101932.66
2022-10-16T17:30:09.059Z,101938.56
2022-10-16T17:32:49.205Z,101942.25
2022-10-16T17:35:36.075Z,101928.09
2022-10-16T17:38:24.061Z,101934.25
2022-10-16T17:41:41.051Z,101931.06
2022-10-16T17:44:29.072Z,101936.34
2022-10-16T17:47:16.057Z,101933.34
2022-10-16T17:49:57.573Z,101945.47
2022-10-16T17:52:44.051Z,101946.16
2022-10-16T17:55:31.032Z,101941.44
2022-10-16T17:58:18.140Z,101936.44
2022-10-16T18:01:05.034Z,101948.09
2022-10-16T18:03:49.886Z,101936.78
2022-10-16T18:06:37.009Z,101936.78
2022-10-16T18:09:20.618Z,101934.03
2022-10-16T18:12:07.043Z,101937.97
2022-10-16T18:14:47.431Z,101943.78
2022-10-16T18:17:34.006Z,101946.13
2022-10-16T18:20:14.461Z,101950.28
2022-10-16T18:23:01.005Z,101944.75
2022-10-16T18:26:02.985Z,101949.16
2022-10-16T18:28:51.059Z,101951.50
2022-10-16T18:31:33.294Z,101955.09
2022-10-16T18:34:20.999Z,101959.19
2022-10-16T18:37:01.140Z,101965.84
2022-10-16T18:39:47.987Z,101959.63
2022-10-16T18:42:34.979Z,101967.09
2022-10-16T18:45:15.475Z,101971.84
2022-10-16T18:47:54.976Z,101986.94
2022-10-16T18:50:41.962Z,101983.56
2022-10-16T18:53:22.425Z,101988.75
2022-10-16T18:56:08.985Z,101988.25
2022-10-16T18:58:51.639Z,101997.44
2022-10-16T19:01:40.021Z,101997.84
2022-10-16T19:04:29.993Z,102001.03
2022-10-16T19:07:10.090Z,102004.94
2022-10-16T19:09:56.906Z,102012.16
2022-10-16T19:12:44.935Z,102011.13
2022-10-16T19:15:25.348Z,102015.41
2022-10-16T19:18:11.908Z,102013.75
2022-10-16T19:20:58.978Z,102024.47
2022-10-16T19:23:39.015Z,102027.56
2022-10-16T19:26:27.930Z,102030.59
2022-10-16T19:29:16.929Z,102031.19
2022-10-16T19:31:57.380Z,102029.28
2022-10-16T19:34:43.941Z,102030.13
2022-10-16T19:37:33.897Z,102035.41
2022-10-16T19:40:13.995Z,102029.34
2022-10-16T19:43:00.903Z,102031.31
2022-10-16T19:45:41.040Z,102035.47
2022-10-16T19:48:29.915Z,102033.59
2022-10-16T19:51:11.022Z,102031.06
2022-10-16T19:54:01.865Z,102037.13
2022-10-16T19:56:43.081Z,102035.72
2022-10-16T19:59:29.873Z,102032.75
2022-10-16T20:02:09.997Z,102036.03
2022-10-16T20:04:56.878Z,102037.47
2022-10-16T20:07:37.376Z,102044.41
2022-10-16T20:10:24.875Z,102042.78
2022-10-16T20:13:04.978Z,102051.94
2022-10-16T20:15:51.959Z,102051.97
2022-10-16T20:18:32.042Z,102052.81
2022-10-16T20:21:21.881Z,102047.56
2022-10-16T20:24:02.198Z,102044.56
2022-10-16T20:26:48.826Z,102051.75
2022-10-16T20:29:29.000Z,102055.31
2022-10-16T20:32:15.822Z,102055.88
2022-10-16T20:34:55.912Z,102051.22
2022-10-16T20:37:42.864Z,102043.78
2022-10-16T20:40:29.824Z,102045.69
2022-10-16T20:43:24.460Z,102048.72
2022-10-16T20:46:09.809Z,102045.97
2022-10-16T20:49:06.019Z,102052.34
2022-10-16T20:51:51.050Z,102057.06
2022-10-16T20:54:37.789Z,102037.25
2022-10-16T20:57:25.026Z,102044.13
2022-10-16T21:00:06.518Z,102043.34
2022-10-16T21:02:52.809Z,102046.94
2022-10-16T21:05:39.880Z,102046.94
2022-10-16T21:08:19.902Z,102042.00
2022-10-16T21:11:06.773Z,102044.47
2022-10-16T21:13:53.805Z,102053.00
2022-10-16T21:16:34.582Z,102042.81
2022-10-16T21:19:21.791Z,102040.31
2022-10-16T21:22:02.146Z,102033.41
2022-10-16T21:24:49.775Z,102028.75
2022-10-16T21:27:43.816Z,102029.56
2022-10-16T21:30:30.847Z,102036.19
2022-10-16T21:33:10.727Z,102024.88
2022-10-16T21:35:57.733Z,102024.06
2022-10-16T21:38:37.893Z,102013.28
2022-10-16T21:41:28.779Z,102006.09
2022-10-16T21:44:10.899Z,102007.13
2022-10-16T21:46:57.717Z,102011.53
2022-10-16T21:49:37.922Z,102009.03
2022-10-16T21:52:24.987Z,102014.81
2022-10-16T21:55:04.887Z,102022.00
2022-10-16T21:57:51.692Z,102027.25
2022-10-16T22:00:31.846Z,102023.09
2022-10-16T22:03:18.749Z,102021.75
2022-10-16T22:06:02.724Z,102026.44
2022-10-16T22:08:54.740Z,102029.78
2022-10-16T22:11:44.717Z,102031.16
2022-10-16T22:14:31.983Z,102033.94
2022-10-16T22:17:11.705Z,102041.88
2022-10-16T22:19:52.090Z,102040.19
2022-10-16T22:22:38.755Z,102045.13
2022-10-16T22:25:19.115Z,102048.94
2022-10-16T22:28:05.718Z,102046.44
2022-10-16T22:30:52.794Z,102043.09
2022-10-16T22:36:24.709Z,102050.50
2022-10-16T22:39:04.976Z,102055.97
2022-10-16T22:41:51.692Z,102052.09
2022-10-16T22:44:31.835Z,102047.13
2022-10-16T22:47:18.646Z,102042.41
2022-10-16T22:49:58.800Z,102059.75
2022-10-16T22:52:45.700Z,102064.69
2022-10-16T22:55:25.762Z,102063.25
2022-10-16T22:58:12.674Z,102062.66
2022-10-16T23:00:59.691Z,102058.19
2022-10-16T23:03:40.065Z,102047.84
2022-10-16T23:06:26.658Z,102049.44
2022-10-16T23:09:07.028Z,102056.28
2022-10-16T23:11:53.638Z,102052.31
2022-10-16T23:14:34.078Z,102055.25
2022-10-16T23:17:20.640Z,102059.88
2022-10-16T23:20:07.628Z,102070.59
2022-10-16T23:22:54.627Z,102065.00
2022-10-16T23:25:35.462Z,102065.47
2022-10-16T23:28:22.653Z,102062.66
2022-10-16T23:31:07.131Z,102070.09
2022-10-16T23:33:53.588Z,102062.03
2022-10-16T23:36:33.954Z,102070.91
2022-10-16T23:39:20.580Z,102073.03
2022-10-16T23:42:07.575Z,102070.28
2022-10-16T23:44:54.572Z,102064.78
2022-10-16T23:47:41.605Z,102058.31
2022-10-16T23:50:21.637Z,102065.06
2022-10-16T23:53:11.602Z,102077.56
2022-10-16T23:55:51.652Z,102079.91
2022-10-16T23:58:38.606Z,102067.28
